createdAt,value
2022-11-27T00:01:48.461Z,23.88
2022-11-27T00:04:18.505Z,23.83
2022-11-27T00:06:48.714Z,23.86
2022-11-27T00:09:19.273Z,23.88
2022-11-27T00:11:49.781Z,23.78
2022-11-27T00:14:20.919Z,23.69
2022-11-27T00:16:51.627Z,23.65
2022-11-27T00:19:21.843Z,23.59
2022-11-27T00:21:52.162Z,23.51
2022-11-27T00:24:22.091Z,23.41
2022-11-27T00:26:52.052Z,23.38
2022-11-27T00:29:22.020Z,23.30
2022-11-27T00:31:51.897Z,23.30
2022-11-27T00:34:22.088Z,23.20
2022-11-27T00:36:52.041Z,23.15
2022-11-27T00:39:22.335Z,23.11
2022-11-27T00:41:52.254Z,23.04
2022-11-27T00:44:22.329Z,22.86
2022-11-27T00:46:52.376Z,22.83
2022-11-27T00:49:22.327Z,22.82
2022-11-27T00:51:52.235Z,22.77
2022-11-27T00:54:22.974Z,22.72
2022-11-27T00:56:53.122Z,22.66
2022-11-27T00:59:22.979Z,22.63
2022-11-27T01:01:53.239Z,22.57
2022-11-27T01:04:23.702Z,22.45
2022-11-27T01:06:53.634Z,22.41
2022-11-27T01:09:23.612Z,22.36
2022-11-27T01:11:53.477Z,22.26
2022-11-27T01:14:23.957Z,22.16
2022-11-27T01:16:54.969Z,22.09
2022-11-27T01:19:25.706Z,22.08
2022-11-27T01:21:55.644Z,22.16
2022-11-27T01:24:26.486Z,22.08
2022-11-27T01:26:56.698Z,22.04
2022-11-27T01:29:26.869Z,21.93
2022-11-27T01:31:57.135Z,21.88
2022-11-27T01:34:27.050Z,21.81
2022-11-27T01:36:57.018Z,21.81
2022-11-27T01:39:27.864Z,21.78
2022-11-27T01:41:57.985Z,21.73
2022-11-27T01:44:28.476Z,21.63
2022-11-27T01:47:05.044Z,21.58
2022-11-27T01:49:35.103Z,21.61
2022-11-27T01:52:37.411Z,21.47
2022-11-27T01:55:21.425Z,21.39
2022-11-27T01:58:02.482Z,21.40
2022-11-27T02:00:32.686Z,21.42
2022-11-27T02:03:02.643Z,21.29
2022-11-27T02:05:33.247Z,21.37
2022-11-27T02:08:11.605Z,21.57
2022-11-27T02:11:01.020Z,21.51
2022-11-27T02:13:57.272Z,21.37
2022-11-27T02:16:38.435Z,21.47
2022-11-27T02:19:30.008Z,22.29
2022-11-27T02:22:21.182Z,21.77
2022-11-27T02:25:08.817Z,21.68
2022-11-27T02:27:56.961Z,22.19
2022-11-27T02:30:27.581Z,21.98
2022-11-27T02:33:01.283Z,22.09
2022-11-27T02:35:41.872Z,22.12
2022-11-27T02:38:17.214Z,22.04
2022-11-27T02:41:07.271Z,22.26
2022-11-27T02:43:43.651Z,22.11
2022-11-27T02:46:15.853Z,22.28
2022-11-27T02:48:56.811Z,22.24
2022-11-27T02:51:50.046Z,22.02
2022-11-27T02:54:26.745Z,21.84
2022-11-27T02:56:58.917Z,21.65
2022-11-27T02:59:32.682Z,21.56
2022-11-27T03:02:14.250Z,21.44
2022-11-27T03:04:51.046Z,21.29
2022-11-27T03:07:33.041Z,21.22
2022-11-27T03:10:10.306Z,21.15
2022-11-27T03:12:41.239Z,21.10
2022-11-27T03:15:12.196Z,21.03
2022-11-27T03:17:59.640Z,20.86
2022-11-27T03:20:34.436Z,20.84
2022-11-27T03:23:05.045Z,20.75
2022-11-27T03:25:35.792Z,20.68
2022-11-27T03:28:09.982Z,20.54
2022-11-27T03:30:42.778Z,20.54
2022-11-27T03:33:14.669Z,20.48
2022-11-27T03:35:45.248Z,20.43
2022-11-27T03:38:15.296Z,20.41
2022-11-27T03:41:06.388Z,20.33
2022-11-27T03:43:46.382Z,20.33
2022-11-27T03:46:32.703Z,20.18
2022-11-27T03:49:16.292Z,20.20
2022-11-27T03:52:00.274Z,20.12
2022-11-27T03:54:54.830Z,20.06
2022-11-27T03:57:37.361Z,19.93
2022-11-27T04:00:10.988Z,19.98
2022-11-27T04:02:52.601Z,19.94
2022-11-27T04:05:23.564Z,19.92
2022-11-27T04:07:54.190Z,19.89
2022-11-27T04:10:24.319Z,19.90
2022-11-27T04:12:54.214Z,19.76
2022-11-27T04:15:24.340Z,19.76
2022-11-27T04:17:54.224Z,19.69
2022-11-27T04:20:24.262Z,19.66
2022-11-27T04:22:54.166Z,19.65
2022-11-27T04:25:24.534Z,19.65
2022-11-27T04:27:54.582Z,19.66
2022-11-27T04:30:24.929Z,19.67
2022-11-27T04:32:55.548Z,19.65
2022-11-27T04:35:25.469Z,19.62
2022-11-27T04:37:56.004Z,19.63
2022-11-27T04:40:26.383Z,19.59
2022-11-27T04:42:56.602Z,19.55
2022-11-27T04:45:26.963Z,19.46
2022-11-27T04:47:57.003Z,19.29
2022-11-27T04:50:26.874Z,19.22
2022-11-27T04:52:57.300Z,19.25
2022-11-27T04:55:27.177Z,19.25
2022-11-27T04:57:57.069Z,19.25
2022-11-27T05:00:27.072Z,19.21
2022-11-27T05:02:57.091Z,19.17
2022-11-27T05:05:27.042Z,19.06
2022-11-27T05:07:57.725Z,19.10
2022-11-27T05:10:28.070Z,19.08
2022-11-27T05:12:58.406Z,19.07
2022-11-27T05:15:29.260Z,19.08
2022-11-27T05:17:59.577Z,19.10
2022-11-27T05:20:29.767Z,19.04
2022-11-27T05:23:00.309Z,19.06
2022-11-27T05:25:30.238Z,19.03
2022-11-27T05:28:00.542Z,19.01
2022-11-27T05:30:30.515Z,18.88
2022-11-27T05:33:00.839Z,18.78
2022-11-27T05:35:30.732Z,18.87
2022-11-27T05:38:00.708Z,18.93
2022-11-27T05:40:30.654Z,18.94
2022-11-27T05:43:00.468Z,18.86
2022-11-27T05:45:30.342Z,18.74
2022-11-27T05:48:00.202Z,18.83
2022-11-27T05:50:30.034Z,18.84
2022-11-27T05:53:01.718Z,18.77
2022-11-27T05:55:31.882Z,18.70
2022-11-27T05:58:02.032Z,18.67
2022-11-27T06:00:32.524Z,18.61
2022-11-27T06:03:02.495Z,18.53
2022-11-27T06:05:32.374Z,18.60
2022-11-27T06:08:02.272Z,18.59
2022-11-27T06:10:32.493Z,18.55
2022-11-27T06:13:02.663Z,18.46
2022-11-27T06:15:32.558Z,18.46
2022-11-27T06:18:03.361Z,18.43
2022-11-27T06:20:33.542Z,18.43
2022-11-27T06:23:03.705Z,18.40
2022-11-27T06:25:34.895Z,18.33
2022-11-27T06:28:04.959Z,18.26
2022-11-27T06:30:34.893Z,18.26
2022-11-27T06:33:04.755Z,18.33
2022-11-27T06:35:35.081Z,18.30
2022-11-27T06:38:04.978Z,18.25
2022-11-27T06:40:35.290Z,18.26
2022-11-27T06:43:05.185Z,18.33
2022-11-27T06:45:35.075Z,18.30
2022-11-27T06:48:05.052Z,18.32
2022-11-27T06:50:35.179Z,18.15
2022-11-27T06:53:05.391Z,18.19
2022-11-27T06:55:35.243Z,18.25
2022-11-27T06:58:05.149Z,18.22
2022-11-27T07:00:35.051Z,18.15
2022-11-27T07:03:05.131Z,18.12
2022-11-27T07:05:35.378Z,18.09
2022-11-27T07:08:06.348Z,18.13
2022-11-27T07:10:37.847Z,18.13
2022-11-27T07:13:08.091Z,18.13
2022-11-27T07:15:38.063Z,18.10
2022-11-27T07:18:08.319Z,18.05
2022-11-27T07:20:38.883Z,18.05
2022-11-27T07:23:08.933Z,18.04
2022-11-27T07:25:40.637Z,17.94
2022-11-27T07:28:14.734Z,17.95
2022-11-27T07:30:55.130Z,18.01
2022-11-27T07:33:25.829Z,17.94
2022-11-27T07:36:23.447Z,17.94
2022-11-27T07:38:54.012Z,17.89
2022-11-27T07:41:25.315Z,17.81
2022-11-27T07:43:57.033Z,17.92
2022-11-27T07:46:27.250Z,17.91
2022-11-27T07:48:57.123Z,17.92
2022-11-27T07:51:27.024Z,17.91
2022-11-27T07:53:57.358Z,17.87
2022-11-27T07:56:28.586Z,17.85
2022-11-27T07:59:00.742Z,17.84
2022-11-27T08:01:30.921Z,17.85
2022-11-27T08:04:00.829Z,17.81
2022-11-27T08:06:31.031Z,17.78
2022-11-27T08:09:01.092Z,17.73
2022-11-27T08:11:36.431Z,17.71
2022-11-27T08:14:08.539Z,17.61
2022-11-27T08:16:39.109Z,17.54
2022-11-27T08:19:09.425Z,17.53
2022-11-27T08:21:39.548Z,17.55
2022-11-27T08:24:09.748Z,17.53
2022-11-27T08:26:39.766Z,17.48
2022-11-27T08:29:12.475Z,17.54
2022-11-27T08:31:43.244Z,17.54
2022-11-27T08:34:13.333Z,17.57
2022-11-27T08:36:43.284Z,17.57
2022-11-27T08:39:13.282Z,17.55
2022-11-27T08:41:43.143Z,17.41
2022-11-27T08:44:13.329Z,17.40
2022-11-27T08:46:44.512Z,17.51
2022-11-27T08:49:14.859Z,17.57
2022-11-27T08:51:45.861Z,17.63
2022-11-27T08:54:15.941Z,17.70
2022-11-27T08:56:45.893Z,18.18
2022-11-27T08:59:16.071Z,18.43
2022-11-27T09:01:46.356Z,18.60
2022-11-27T09:04:16.814Z,18.49
2022-11-27T09:06:47.074Z,18.33
2022-11-27T09:09:17.355Z,18.22
2022-11-27T09:11:47.766Z,18.25
2022-11-27T09:14:18.119Z,18.21
2022-11-27T09:16:48.155Z,18.15
2022-11-27T09:19:18.317Z,18.57
2022-11-27T09:21:48.247Z,19.52
2022-11-27T09:24:18.193Z,20.27
2022-11-27T09:26:48.131Z,20.72
2022-11-27T09:29:18.064Z,20.99
2022-11-27T09:31:47.977Z,21.37
2022-11-27T09:34:18.013Z,21.73
2022-11-27T09:36:48.343Z,22.19
2022-11-27T09:39:20.669Z,22.59
2022-11-27T09:42:00.109Z,22.84
2022-11-27T09:44:53.817Z,23.30
2022-11-27T09:47:31.580Z,23.58
2022-11-27T09:50:22.613Z,24.02
2022-11-27T09:53:02.554Z,24.13
2022-11-27T09:55:46.096Z,24.50
2022-11-27T09:58:25.455Z,24.89
2022-11-27T10:00:56.077Z,25.14
2022-11-27T10:03:30.000Z,25.38
2022-11-27T10:06:22.252Z,25.77
2022-11-27T10:09:18.345Z,26.00
2022-11-27T10:12:11.689Z,25.63
2022-11-27T10:15:09.205Z,25.36
2022-11-27T10:17:50.123Z,25.29
2022-11-27T10:20:30.474Z,24.92
2022-11-27T10:23:39.072Z,25.20
2022-11-27T10:26:25.707Z,25.20
2022-11-27T10:29:33.461Z,25.05
2022-11-27T10:32:46.835Z,25.02
2022-11-27T10:35:13.732Z,25.76
2022-11-27T10:37:47.916Z,26.01
2022-11-27T10:40:21.756Z,26.01
2022-11-27T10:43:18.459Z,26.07
2022-11-27T10:46:24.741Z,26.37
2022-11-27T10:48:55.883Z,26.24
2022-11-27T10:51:40.629Z,26.10
2022-11-27T10:54:22.436Z,26.42
2022-11-27T10:57:14.238Z,26.11
2022-11-27T11:00:16.125Z,26.44
2022-11-27T11:02:47.533Z,26.59
2022-11-27T11:05:37.778Z,26.63
2022-11-27T11:08:22.390Z,26.52
2022-11-27T11:11:11.866Z,26.95
2022-11-27T11:13:42.053Z,27.18
2022-11-27T11:16:24.987Z,27.36
2022-11-27T11:18:58.850Z,27.14
2022-11-27T11:21:36.067Z,27.54
2022-11-27T11:24:05.900Z,27.75
2022-11-27T11:26:37.795Z,27.69
2022-11-27T11:29:34.332Z,27.62
2022-11-27T11:32:29.297Z,27.13
2022-11-27T11:35:26.227Z,26.79
2022-11-27T11:37:57.599Z,27.41
2022-11-27T11:40:32.495Z,26.62
2022-11-27T11:43:07.722Z,26.38
2022-11-27T11:45:47.902Z,26.76
2022-11-27T11:48:29.033Z,26.25
2022-11-27T11:50:59.326Z,26.79
2022-11-27T11:53:38.336Z,25.87
2022-11-27T11:56:22.225Z,26.56
2022-11-27T11:59:04.381Z,26.45
2022-11-27T12:01:35.648Z,26.90
2022-11-27T12:04:15.089Z,27.75
2022-11-27T12:06:57.715Z,28.36
2022-11-27T12:09:59.260Z,28.90
2022-11-27T12:12:57.421Z,28.75
2022-11-27T12:15:55.797Z,29.36
2022-11-27T12:18:37.842Z,29.74
2022-11-27T12:21:23.149Z,29.32
2022-11-27T12:23:59.022Z,29.53
2022-11-27T12:26:41.491Z,29.74
2022-11-27T12:29:40.457Z,29.69
2022-11-27T12:32:38.549Z,29.82
2022-11-27T12:35:33.520Z,29.99
2022-11-27T12:38:03.987Z,29.84
2022-11-27T12:41:00.343Z,30.21
2022-11-27T12:43:34.727Z,30.31
2022-11-27T12:46:39.672Z,30.45
2022-11-27T12:49:23.872Z,30.65
2022-11-27T12:52:05.292Z,31.09
2022-11-27T12:54:49.109Z,30.68
2022-11-27T12:57:26.439Z,31.80
2022-11-27T13:00:01.148Z,31.29
2022-11-27T13:02:56.133Z,31.09
2022-11-27T13:05:30.259Z,31.63
2022-11-27T13:08:17.584Z,31.61
2022-11-27T13:11:03.042Z,31.53
2022-11-27T13:13:42.241Z,31.73
2022-11-27T13:16:20.478Z,30.75
2022-11-27T13:19:13.941Z,29.51
2022-11-27T13:21:47.132Z,29.74
2022-11-27T13:24:17.677Z,29.94
2022-11-27T13:27:09.224Z,30.41
2022-11-27T13:29:48.226Z,30.45
2022-11-27T13:32:39.418Z,31.41
2022-11-27T13:35:39.026Z,33.35
2022-11-27T13:38:28.309Z,32.68
2022-11-27T13:41:00.626Z,32.28
2022-11-27T13:43:35.852Z,32.31
2022-11-27T13:46:13.115Z,31.18
2022-11-27T13:48:50.282Z,30.28
2022-11-27T13:51:35.615Z,29.83
2022-11-27T13:54:15.897Z,30.17
2022-11-27T13:56:46.842Z,29.89
2022-11-27T13:59:19.335Z,29.99
2022-11-27T14:02:15.401Z,29.93
2022-11-27T14:04:56.396Z,29.76
2022-11-27T14:07:57.623Z,29.83
2022-11-27T14:10:35.199Z,29.52
2022-11-27T14:13:09.870Z,29.61
2022-11-27T14:15:41.928Z,29.15
2022-11-27T14:18:12.298Z,29.14
2022-11-27T14:20:59.415Z,29.26
2022-11-27T14:23:33.347Z,29.63
2022-11-27T14:26:23.355Z,29.70
2022-11-27T14:28:57.500Z,29.65
2022-11-27T14:31:38.707Z,30.51
2022-11-27T14:34:27.662Z,31.47
2022-11-27T14:36:58.574Z,30.86
2022-11-27T14:39:39.485Z,31.63
2022-11-27T14:42:28.539Z,32.46
2022-11-27T14:45:14.982Z,33.14
2022-11-27T14:47:51.604Z,33.92
2022-11-27T14:50:23.470Z,33.86
2022-11-27T14:52:57.636Z,34.35
2022-11-27T14:55:34.403Z,35.00
2022-11-27T14:58:05.645Z,35.65
2022-11-27T15:00:35.568Z,36.52
2022-11-27T15:03:12.485Z,36.92
2022-11-27T15:05:52.686Z,36.03
2022-11-27T15:08:23.391Z,36.27
2022-11-27T15:10:58.128Z,33.79
2022-11-27T15:13:37.265Z,31.22
2022-11-27T15:16:28.158Z,31.08
2022-11-27T15:19:04.658Z,34.15
2022-11-27T15:21:39.901Z,36.27
2022-11-27T15:24:33.792Z,36.36
2022-11-27T15:27:34.070Z,35.55
2022-11-27T15:30:14.032Z,32.59
2022-11-27T15:32:56.795Z,35.14
2022-11-27T15:35:35.115Z,32.83
2022-11-27T15:38:13.152Z,33.28
2022-11-27T15:40:43.677Z,34.63
2022-11-27T15:43:17.745Z,36.31
2022-11-27T15:45:48.046Z,37.22
2022-11-27T15:48:20.713Z,35.58
2022-11-27T15:50:52.099Z,33.79
2022-11-27T15:53:22.549Z,32.01
2022-11-27T15:55:52.457Z,34.73
2022-11-27T15:58:22.695Z,32.45
2022-11-27T16:00:53.568Z,34.95
2022-11-27T16:03:23.948Z,35.76
2022-11-27T16:05:54.282Z,32.99
2022-11-27T16:08:24.623Z,34.08
2022-11-27T16:10:55.122Z,35.12
2022-11-27T16:13:26.614Z,36.15
2022-11-27T16:15:56.890Z,36.26
2022-11-27T16:18:27.566Z,35.97
2022-11-27T16:20:57.544Z,36.29
2022-11-27T16:23:27.454Z,36.47
2022-11-27T16:25:57.335Z,36.16
2022-11-27T16:28:32.244Z,36.89
2022-11-27T16:31:05.161Z,36.40
2022-11-27T16:33:35.471Z,36.09
2022-11-27T16:36:11.041Z,37.45
2022-11-27T16:38:42.177Z,36.98
2022-11-27T16:41:15.920Z,36.84
2022-11-27T16:43:48.817Z,36.84
2022-11-27T16:46:22.177Z,35.49
2022-11-27T16:48:52.626Z,33.79
2022-11-27T16:51:26.027Z,35.41
2022-11-27T16:53:58.471Z,34.15
2022-11-27T16:56:31.486Z,35.07
2022-11-27T16:59:03.305Z,33.98
2022-11-27T17:01:37.146Z,32.51
2022-11-27T17:04:10.306Z,34.90
2022-11-27T17:06:41.014Z,35.38
2022-11-27T17:09:11.294Z,35.21
2022-11-27T17:11:45.684Z,33.95
2022-11-27T17:14:17.337Z,32.39
2022-11-27T17:16:48.597Z,32.45
2022-11-27T17:19:19.932Z,35.01
2022-11-27T17:21:50.406Z,34.94
2022-11-27T17:24:21.030Z,32.82
2022-11-27T17:26:55.101Z,32.25
2022-11-27T17:29:33.827Z,32.58
2022-11-27T17:32:08.407Z,33.43
2022-11-27T17:34:38.818Z,32.28
2022-11-27T17:37:08.971Z,32.82
2022-11-27T17:39:41.238Z,33.28
2022-11-27T17:42:15.284Z,32.89
2022-11-27T17:44:48.600Z,32.12
2022-11-27T17:47:19.063Z,31.51
2022-11-27T17:49:49.056Z,31.44
2022-11-27T17:52:19.011Z,31.43
2022-11-27T17:54:50.192Z,32.27
2022-11-27T17:57:20.745Z,32.09
2022-11-27T17:59:51.904Z,31.16
2022-11-27T18:02:22.071Z,30.55
2022-11-27T18:04:52.079Z,30.28
2022-11-27T18:07:22.060Z,29.92
2022-11-27T18:09:55.410Z,31.84
2022-11-27T18:12:26.474Z,32.48
2022-11-27T18:15:01.228Z,32.95
2022-11-27T18:17:31.910Z,33.41
2022-11-27T18:20:02.030Z,33.68
2022-11-27T18:22:32.398Z,33.58
2022-11-27T18:25:02.550Z,33.24
2022-11-27T18:27:32.928Z,33.76
2022-11-27T18:30:03.173Z,34.10
2022-11-27T18:32:33.685Z,33.41
2022-11-27T18:35:03.978Z,32.95
2022-11-27T18:37:35.759Z,32.35
2022-11-27T18:40:08.543Z,32.52
2022-11-27T18:42:38.940Z,32.09
2022-11-27T18:45:25.347Z,32.00
2022-11-27T18:48:01.283Z,32.29
2022-11-27T18:50:31.439Z,32.84
2022-11-27T18:53:01.857Z,32.87
2022-11-27T18:55:35.990Z,32.65
2022-11-27T18:58:07.450Z,32.42
2022-11-27T19:00:38.273Z,31.95
2022-11-27T19:03:08.789Z,31.74
2022-11-27T19:05:39.018Z,31.33
2022-11-27T19:08:10.165Z,31.09
2022-11-27T19:10:40.404Z,30.93
2022-11-27T19:13:10.954Z,30.85
2022-11-27T19:15:42.533Z,30.49
2022-11-27T19:18:13.128Z,29.51
2022-11-27T19:20:43.027Z,28.45
2022-11-27T19:23:13.311Z,28.20
2022-11-27T19:25:45.103Z,27.98
2022-11-27T19:28:15.146Z,28.02
2022-11-27T19:30:46.428Z,27.72
2022-11-27T19:33:16.585Z,27.41
2022-11-27T19:35:46.926Z,27.30
2022-11-27T19:38:18.710Z,27.03
2022-11-27T19:40:49.468Z,26.63
2022-11-27T19:43:21.035Z,26.49
2022-11-27T19:45:51.725Z,26.32
2022-11-27T19:48:23.620Z,26.18
2022-11-27T19:50:54.067Z,26.18
2022-11-27T19:53:24.142Z,26.10
2022-11-27T19:55:57.446Z,26.10
2022-11-27T19:58:28.221Z,25.86
2022-11-27T20:01:10.673Z,25.33
2022-11-27T20:03:41.883Z,24.95
2022-11-27T20:06:15.386Z,24.72
2022-11-27T20:08:47.149Z,24.61
2022-11-27T20:11:22.357Z,24.33
2022-11-27T20:13:53.153Z,24.10
2022-11-27T20:16:23.633Z,23.88
2022-11-27T20:18:54.885Z,23.71
2022-11-27T20:21:28.201Z,23.66
2022-11-27T20:23:59.737Z,23.52
2022-11-27T20:26:31.726Z,23.65
2022-11-27T20:29:02.638Z,23.82
2022-11-27T20:31:35.732Z,23.93
2022-11-27T20:34:08.355Z,23.92
2022-11-27T20:36:42.198Z,23.98
2022-11-27T20:39:17.678Z,24.05
2022-11-27T20:41:52.306Z,24.13
2022-11-27T20:44:24.637Z,24.10
2022-11-27T20:46:55.326Z,24.13
2022-11-27T20:49:26.447Z,24.06
2022-11-27T20:51:57.485Z,24.00
2022-11-27T20:54:28.356Z,23.83
2022-11-27T20:56:58.427Z,23.72
2022-11-27T20:59:28.848Z,23.69
2022-11-27T21:01:59.087Z,23.63
2022-11-27T21:04:29.329Z,23.76
2022-11-27T21:06:59.835Z,23.82
2022-11-27T21:09:30.746Z,23.88
2022-11-27T21:12:00.944Z,23.85
2022-11-27T21:14:31.823Z,23.82
2022-11-27T21:17:05.217Z,23.81
2022-11-27T21:19:37.103Z,23.82
2022-11-27T21:22:08.452Z,23.75
2022-11-27T21:24:38.883Z,23.71
2022-11-27T21:27:11.113Z,23.68
2022-11-27T21:29:42.156Z,23.72
2022-11-27T21:32:13.214Z,23.73
2022-11-27T21:34:43.944Z,23.40
2022-11-27T21:37:14.947Z,23.34
2022-11-27T21:39:45.909Z,23.22
2022-11-27T21:42:17.631Z,23.21
2022-11-27T21:44:48.413Z,23.13
2022-11-27T21:47:18.812Z,23.04
2022-11-27T21:49:51.749Z,22.99
2022-11-27T21:52:22.133Z,22.92
2022-11-27T21:54:54.821Z,23.01
2022-11-27T21:57:25.391Z,23.10
2022-11-27T21:59:55.648Z,23.18
2022-11-27T22:02:25.674Z,23.25
2022-11-27T22:04:55.697Z,23.17
2022-11-27T22:07:25.692Z,23.17
2022-11-27T22:09:55.903Z,23.11
2022-11-27T22:12:25.811Z,23.01
2022-11-27T22:14:56.273Z,23.06
2022-11-27T22:17:26.615Z,23.03
2022-11-27T22:19:56.656Z,23.00
2022-11-27T22:22:26.608Z,22.93
2022-11-27T22:24:57.047Z,22.92
2022-11-27T22:27:27.494Z,22.82
2022-11-27T22:29:57.964Z,22.83
2022-11-27T22:32:28.417Z,22.82
2022-11-27T22:34:58.635Z,22.77
2022-11-27T22:37:29.252Z,22.70
2022-11-27T22:40:00.600Z,22.63
2022-11-27T22:42:31.032Z,22.57
2022-11-27T22:45:01.396Z,22.62
2022-11-27T22:47:31.977Z,22.60
2022-11-27T22:50:02.862Z,22.55
2022-11-27T22:52:33.149Z,22.48
2022-11-27T22:55:03.264Z,22.45
2022-11-27T22:57:36.016Z,22.46
2022-11-27T23:00:09.351Z,22.48
2022-11-27T23:02:40.236Z,22.55
2022-11-27T23:05:10.468Z,22.53
2022-11-27T23:07:41.230Z,22.43
2022-11-27T23:10:12.425Z,22.42
2022-11-27T23:12:42.469Z,22.41
2022-11-27T23:15:12.816Z,22.39
2022-11-27T23:17:43.156Z,22.36
2022-11-27T23:20:14.104Z,22.35
2022-11-27T23:22:44.152Z,22.24
2022-11-27T23:25:14.229Z,22.26
2022-11-27T23:27:46.050Z,22.28
2022-11-27T23:30:17.106Z,22.29
2022-11-27T23:32:47.113Z,22.21
2022-11-27T23:35:17.074Z,22.15
2022-11-27T23:37:47.116Z,22.18
2022-11-27T23:40:17.647Z,22.12
2022-11-27T23:42:47.927Z,22.09
2022-11-27T23:45:17.971Z,21.97
2022-11-27T23:47:48.869Z,21.94
2022-11-27T23:50:19.305Z,21.88
2022-11-27T23:52:49.660Z,21.91
2022-11-27T23:55:19.960Z,21.84
2022-11-27T23:57:50.343Z,21.95
